createdAt,value
2023-01-17T00:02:46.335Z,94290.47
2023-01-17T00:07:56.688Z,94281.78
2023-01-17T00:13:01.266Z,94299.94
2023-01-17T00:17:54.150Z,94298.47
2023-01-17T00:23:04.329Z,94299.94
2023-01-17T00:27:56.284Z,94293.75
2023-01-17T00:32:48.044Z,94292.97
2023-01-17T00:37:39.754Z,94304.94
2023-01-17T00:42:31.463Z,94294.09
2023-01-17T00:47:41.812Z,94291.56
2023-01-17T00:52:52.195Z,94288.06
2023-01-17T00:58:03.422Z,94279.03
2023-01-17T02:06:45.665Z,94265.44
2023-01-17T02:11:40.272Z,94262.44
2023-01-17T02:17:13.140Z,94259.47
2023-01-17T02:22:57.735Z,94259.44
2023-01-17T02:28:32.192Z,94253.47
2023-01-17T02:34:16.982Z,94247.44
2023-01-17T02:39:24.276Z,94247.06
2023-01-17T02:44:19.278Z,94249.28
2023-01-17T02:49:11.046Z,94245.53
2023-01-17T02:54:40.538Z,94251.31
2023-01-17T03:00:11.199Z,94247.72
2023-01-17T03:05:39.778Z,94225.00
2023-01-17T03:10:36.121Z,94237.19
2023-01-17T03:15:27.897Z,94242.41
2023-01-17T03:20:22.288Z,94251.66
2023-01-17T03:25:14.290Z,94240.53
2023-01-17T03:30:07.267Z,94238.31
2023-01-17T03:34:58.928Z,94217.66
2023-01-17T03:39:50.651Z,94204.72
2023-01-17T03:44:42.356Z,94215.69
2023-01-17T03:49:34.021Z,94209.50
2023-01-17T03:54:25.676Z,94213.25
2023-01-17T03:59:17.325Z,94207.00
2023-01-17T04:04:09.013Z,94210.72
2023-01-17T04:09:00.727Z,94207.72
2023-01-17T04:13:52.419Z,94201.47
2023-01-17T04:18:44.673Z,94199.91
2023-01-17T04:23:36.400Z,94193.31
2023-01-17T04:28:28.062Z,94193.38
2023-01-17T04:33:19.757Z,94204.06
2023-01-17T04:38:11.421Z,94193.41
2023-01-17T04:43:03.102Z,94177.75
2023-01-17T04:47:54.766Z,94177.78
2023-01-17T04:52:46.532Z,94190.59
2023-01-17T04:57:38.188Z,94183.75
2023-01-17T05:58:44.629Z,94124.50
2023-01-17T13:44:31.046Z,93606.50
2023-01-17T13:49:50.976Z,93614.28
2023-01-17T15:18:33.380Z,93646.16
2023-01-17T16:37:16.880Z,93698.06
2023-01-17T16:52:44.708Z,93709.00
2023-01-17T17:07:51.738Z,93753.88
2023-01-17T17:12:47.847Z,93734.25
2023-01-17T19:31:24.572Z,93830.94
2023-01-17T20:37:43.725Z,93843.25
2023-01-17T21:39:29.619Z,93854.34
